Time;durP1;ratioP1;P1;durP2;ratioP2;P2;SDS_P1;SDS_P2;PMS_P1;PMS_P2;Temp;Humidity;BMP_temperature;BMP_pressure;BME280_temperature;BME280_humidity;BME280_pressure;Samples;Min_cycle;Max_cycle;Signal;HPM_P1;HPM_P2
2022/12/04 00:00:13;;;;;;;3.80;1.73;;;;;;;;;;1723076;81;21535;-47
2022/12/04 00:02:39;;;;;;;5.80;1.57;;;;;;;;;;1718190;81;21065;-47
2022/12/04 00:05:07;;;;;;;4.80;1.83;;;;;;;;;;1721253;81;22445;-46
2022/12/04 00:07:33;;;;;;;3.80;1.80;;;;;;;;;;1717380;81;21567;-47
2022/12/04 00:09:59;;;;;;;6.10;2.00;;;;;;;;;;1723414;81;21093;-46
2022/12/04 00:12:25;;;;;;;8.10;2.23;;;;;;;;;;1673271;83;21043;-46
2022/12/04 00:14:52;;;;;;;4.80;1.97;;;;;;;;;;1650012;84;21646;-46
2022/12/04 00:17:18;;;;;;;4.90;2.00;;;;;;;;;;1718676;81;21852;-47
2022/12/04 00:19:44;;;;;;;5.67;1.80;;;;;;;;;;1721528;81;21467;-47
2022/12/04 00:22:10;;;;;;;5.00;2.00;;;;;;;;;;1724867;81;21099;-46
2022/12/04 00:24:36;;;;;;;3.87;1.97;;;;;;;;;;1722941;81;21470;-48
2022/12/04 00:27:02;;;;;;;5.87;2.57;;;;;;;;;;1720928;81;21061;-45
2022/12/04 00:29:29;;;;;;;6.63;2.83;;;;;;;;;;1720493;81;22459;-46
2022/12/04 00:31:55;;;;;;;5.13;2.50;;;;;;;;;;1719740;81;21053;-47
2022/12/04 00:34:21;;;;;;;2.93;1.60;;;;;;;;;;1722504;81;21384;-49
2022/12/04 00:36:47;;;;;;;5.07;2.17;;;;;;;;;;1726902;81;21696;-48
2022/12/04 00:39:14;;;;;;;8.50;2.73;;;;;;;;;;1716826;81;21590;-47
2022/12/04 00:41:40;;;;;;;4.13;1.80;;;;;;;;;;1722797;81;21856;-48
2022/12/04 00:44:06;;;;;;;4.70;2.50;;;;;;;;;;1680976;83;21085;-46
2022/12/04 00:46:34;;;;;;;4.47;1.80;;;;;;;;;;1720887;81;21093;-48
2022/12/04 00:49:01;;;;;;;4.23;1.67;;;;;;;;;;1718420;81;21618;-47
2022/12/04 00:51:27;;;;;;;8.03;2.50;;;;;;;;;;1718805;81;21555;-47
2022/12/04 00:53:53;;;;;;;6.27;2.70;;;;;;;;;;1720123;81;21800;-47
2022/12/04 00:56:26;;;;;;;3.50;1.60;;;;;;;;;;1712890;81;21064;-46
2022/12/04 00:58:53;;;;;;;4.63;2.70;;;;;;;;;;1721542;81;21069;-48
2022/12/04 01:01:20;;;;;;;4.07;1.90;;;;;;;;;;1717427;81;21055;-47
2022/12/04 01:03:46;;;;;;;3.77;2.10;;;;;;;;;;1721462;81;21102;-45
2022/12/04 01:06:21;;;;;;;2.37;1.63;;;;;;;;;;1720494;81;21392;-46
2022/12/04 01:08:49;;;;;;;4.63;2.70;;;;;;;;;;1724453;81;21129;-47
2022/12/04 01:11:17;;;;;;;3.17;2.00;;;;;;;;;;1682499;83;21105;-48
2022/12/04 01:13:43;;;;;;;5.67;2.23;;;;;;;;;;1721588;81;21045;-47
2022/12/04 01:16:24;;;;;;;5.33;2.20;;;;;;;;;;1710107;81;21081;-47
2022/12/04 01:18:50;;;;;;;4.93;2.00;;;;;;;;;;1719510;81;21857;-46
2022/12/04 01:21:16;;;;;;;5.17;1.97;;;;;;;;;;1713295;81;21079;-47
2022/12/04 01:23:43;;;;;;;4.70;2.53;;;;;;;;;;1718771;81;21423;-46
2022/12/04 01:26:09;;;;;;;4.90;2.30;;;;;;;;;;1717374;81;21799;-47
2022/12/04 01:28:35;;;;;;;4.50;2.17;;;;;;;;;;1720150;81;21088;-46
2022/12/04 01:31:07;;;;;;;5.53;2.07;;;;;;;;;;1720628;81;21776;-47
2022/12/04 01:33:35;;;;;;;4.67;2.17;;;;;;;;;;1651131;85;21567;-47
2022/12/04 01:36:02;;;;;;;4.27;1.70;;;;;;;;;;1717348;81;21560;-46
2022/12/04 01:38:28;;;;;;;4.97;1.90;;;;;;;;;;1714026;81;21110;-47
2022/12/04 01:40:55;;;;;;;6.57;2.47;;;;;;;;;;1721063;81;21052;-48
2022/12/04 01:43:21;;;;;;;3.43;2.33;;;;;;;;;;1682997;83;21847;-47
2022/12/04 01:45:49;;;;;;;4.73;2.63;;;;;;;;;;1715612;81;21475;-47
2022/12/04 01:48:22;;;;;;;2.77;1.60;;;;;;;;;;1719138;81;21421;-46
2022/12/04 01:50:49;;;;;;;4.40;1.97;;;;;;;;;;1720064;81;21057;-48
2022/12/04 01:53:16;;;;;;;2.77;1.93;;;;;;;;;;1719675;81;21073;-47
2022/12/04 01:55:42;;;;;;;6.80;1.90;;;;;;;;;;1719459;81;21308;-46
2022/12/04 01:58:08;;;;;;;6.27;2.20;;;;;;;;;;1719372;81;21035;-45
2022/12/04 02:00:34;;;;;;;6.17;2.37;;;;;;;;;;1720146;81;21101;-46
2022/12/04 02:03:01;;;;;;;4.40;1.93;;;;;;;;;;1717260;81;21062;-47
2022/12/04 02:05:27;;;;;;;3.50;1.60;;;;;;;;;;1711336;81;21080;-48
2022/12/04 02:07:56;;;;;;;5.50;1.90;;;;;;;;;;1720729;81;21990;-47
2022/12/04 02:10:26;;;;;;;3.50;1.77;;;;;;;;;;1717882;81;21606;-46
2022/12/04 02:13:20;;;;;;;4.53;2.03;;;;;;;;;;1717644;81;21038;-47
2022/12/04 02:15:52;;;;;;;3.37;1.50;;;;;;;;;;1719847;81;22159;-45
2022/12/04 02:18:53;;;;;;;3.47;1.93;;;;;;;;;;1715751;81;21067;-46
2022/12/04 02:21:22;;;;;;;8.03;2.57;;;;;;;;;;1716555;81;21807;-46
2022/12/04 02:24:16;;;;;;;5.63;1.63;;;;;;;;;;1722151;82;21088;-46
2022/12/04 02:26:55;;;;;;;3.20;1.97;;;;;;;;;;1720043;81;21057;-46
2022/12/04 02:29:25;;;;;;;5.50;2.07;;;;;;;;;;1719907;81;21097;-46
2022/12/04 02:32:18;;;;;;;4.30;1.87;;;;;;;;;;1721000;81;21051;-46
2022/12/04 02:34:58;;;;;;;5.40;1.77;;;;;;;;;;1718250;81;21863;-47
2022/12/04 02:37:28;;;;;;;3.53;1.93;;;;;;;;;;1719415;82;21108;-47
2022/12/04 02:39:57;;;;;;;3.60;1.87;;;;;;;;;;1718013;82;21038;-47
2022/12/04 02:42:36;;;;;;;3.83;1.57;;;;;;;;;;1720332;81;21058;-47
2022/12/04 02:45:05;;;;;;;7.50;1.67;;;;;;;;;;1686944;83;21892;-47
2022/12/04 02:47:32;;;;;;;3.37;1.90;;;;;;;;;;1724644;81;21815;-47
2022/12/04 02:49:59;;;;;;;4.50;1.67;;;;;;;;;;1725393;81;21084;-47
2022/12/04 02:52:46;;;;;;;3.17;1.93;;;;;;;;;;1723325;81;21481;-47
2022/12/04 02:55:16;;;;;;;3.27;1.47;;;;;;;;;;1715293;82;21399;-47
2022/12/04 02:57:44;;;;;;;4.33;1.53;;;;;;;;;;1721976;81;21653;-47
2022/12/04 03:00:12;;;;;;;3.33;1.40;;;;;;;;;;1719981;82;21834;-46
2022/12/04 03:02:42;;;;;;;7.57;2.47;;;;;;;;;;1686567;83;21483;-47
2022/12/04 03:07:42;;;;;;;3.17;1.80;;;;;;;;;;1794176;78;27427;-47
2022/12/04 03:10:10;;;;;;;5.03;1.70;;;;;;;;;;1773058;79;21077;-47
2022/12/04 03:12:45;;;;;;;5.80;1.77;;;;;;;;;;1771340;79;22251;-47
2022/12/04 03:15:20;;;;;;;4.63;1.70;;;;;;;;;;1771586;79;21057;-47
2022/12/04 03:17:52;;;;;;;2.73;1.50;;;;;;;;;;1774098;79;21558;-47
2022/12/04 03:20:18;;;;;;;4.70;1.40;;;;;;;;;;1779337;79;21508;-47
2022/12/04 03:22:45;;;;;;;4.50;2.17;;;;;;;;;;1781934;78;21032;-47
2022/12/04 03:25:12;;;;;;;4.97;1.97;;;;;;;;;;1777204;79;23358;-47
2022/12/04 03:27:45;;;;;;;4.83;2.03;;;;;;;;;;1778778;79;21048;-45
2022/12/04 03:30:15;;;;;;;5.90;2.00;;;;;;;;;;1746409;80;21544;-47
2022/12/04 03:32:51;;;;;;;3.57;1.50;;;;;;;;;;1715264;81;21751;-46
2022/12/04 03:35:47;;;;;;;5.73;1.33;;;;;;;;;;1730740;81;21116;-47
2022/12/04 03:38:24;;;;;;;4.67;1.87;;;;;;;;;;1731776;81;21928;-47
2022/12/04 03:41:02;;;;;;;4.67;2.57;;;;;;;;;;1728589;81;21065;-47
2022/12/04 03:43:35;;;;;;;3.60;1.70;;;;;;;;;;1728484;81;21085;-47
2022/12/04 03:46:10;;;;;;;4.67;1.83;;;;;;;;;;1731019;81;21072;-46
2022/12/04 03:48:43;;;;;;;7.50;2.83;;;;;;;;;;1709673;81;21051;-46
2022/12/04 03:51:16;;;;;;;4.03;2.40;;;;;;;;;;1717178;81;21853;-46
2022/12/04 03:53:57;;;;;;;5.73;2.27;;;;;;;;;;1711385;81;21136;-46
2022/12/04 03:56:25;;;;;;;6.10;2.20;;;;;;;;;;1684535;81;21041;-46
2022/12/04 03:58:57;;;;;;;3.23;1.33;;;;;;;;;;1713814;81;21064;-47
2022/12/04 04:01:26;;;;;;;9.47;2.47;;;;;;;;;;1719479;81;21130;-46
2022/12/04 04:03:54;;;;;;;5.17;2.47;;;;;;;;;;1718885;81;22575;-46
2022/12/04 04:06:22;;;;;;;7.50;3.10;;;;;;;;;;1703571;81;21128;-45
2022/12/04 04:08:50;;;;;;;5.23;1.93;;;;;;;;;;1725265;80;21029;-46
2022/12/04 04:11:22;;;;;;;7.50;3.40;;;;;;;;;;1721393;80;21061;-46
2022/12/04 04:25:00;;;;;;;6.50;2.60;;;;;;;;;;1724213;80;21612;-46
2022/12/04 04:27:26;;;;;;;4.80;2.20;;;;;;;;;;1700346;81;21061;-46
2022/12/04 04:29:52;;;;;;;6.00;3.20;;;;;;;;;;1718331;80;21979;-46
2022/12/04 04:32:25;;;;;;;7.23;3.30;;;;;;;;;;1725660;80;21622;-46
2022/12/04 04:34:58;;;;;;;5.53;3.17;;;;;;;;;;1724885;80;21039;-46
2022/12/04 04:37:44;;;;;;;4.33;1.87;;;;;;;;;;1716546;80;21022;-46
2022/12/04 04:40:13;;;;;;;5.90;2.63;;;;;;;;;;1705618;80;21290;-46
2022/12/04 04:42:55;;;;;;;6.80;3.13;;;;;;;;;;1726303;81;21940;-46
2022/12/04 04:45:24;;;;;;;5.00;2.93;;;;;;;;;;1725402;80;21081;-47
2022/12/04 04:48:06;;;;;;;6.83;3.00;;;;;;;;;;1726090;80;21522;-46
2022/12/04 04:50:32;;;;;;;6.43;2.93;;;;;;;;;;1727190;80;21053;-46
2022/12/04 04:53:00;;;;;;;6.07;3.50;;;;;;;;;;1725172;80;21084;-46
2022/12/04 04:55:26;;;;;;;8.60;2.93;;;;;;;;;;1721755;80;21761;-46
2022/12/04 04:57:53;;;;;;;3.73;2.27;;;;;;;;;;1700010;81;21325;-46
2022/12/04 05:00:20;;;;;;;9.40;3.47;;;;;;;;;;1721222;80;21068;-47
2022/12/04 05:02:51;;;;;;;7.30;3.17;;;;;;;;;;1720587;80;21364;-47
2022/12/04 05:05:15;;;;;;;9.93;3.07;;;;;;;;;;1723425;80;21041;-46
2022/12/04 05:07:41;;;;;;;8.50;3.57;;;;;;;;;;1723681;80;21857;-46
2022/12/04 05:10:09;;;;;;;6.63;2.90;;;;;;;;;;1695730;82;21661;-46
2022/12/04 05:12:35;;;;;;;14.47;3.50;;;;;;;;;;1724056;80;21515;-46
2022/12/04 05:15:01;;;;;;;8.70;4.10;;;;;;;;;;1709007;80;21033;-47
2022/12/04 05:17:27;;;;;;;5.87;3.03;;;;;;;;;;1713828;80;21033;-47
2022/12/04 05:19:55;;;;;;;10.53;3.30;;;;;;;;;;1714851;80;21836;-46
2022/12/04 05:22:26;;;;;;;3.90;2.83;;;;;;;;;;1719224;80;21073;-47
2022/12/04 05:24:53;;;;;;;5.40;3.00;;;;;;;;;;1723013;80;21697;-47
2022/12/04 05:27:20;;;;;;;7.33;3.60;;;;;;;;;;1721840;80;21124;-46
2022/12/04 05:29:46;;;;;;;5.60;2.40;;;;;;;;;;1719769;80;21024;-47
2022/12/04 05:32:13;;;;;;;9.50;3.57;;;;;;;;;;1709167;80;21905;-46
2022/12/04 05:34:39;;;;;;;10.13;3.83;;;;;;;;;;1713510;80;21104;-47
2022/12/04 05:37:05;;;;;;;8.00;4.53;;;;;;;;;;1725959;80;21093;-46
2022/12/04 05:39:33;;;;;;;6.87;2.63;;;;;;;;;;1696334;82;21096;-46
2022/12/04 05:41:59;;;;;;;9.20;3.47;;;;;;;;;;1718124;80;21063;-46
2022/12/04 05:44:25;;;;;;;10.17;4.17;;;;;;;;;;1720733;80;21803;-46
2022/12/04 05:46:51;;;;;;;7.83;3.67;;;;;;;;;;1725388;80;21022;-47
2022/12/04 05:49:17;;;;;;;7.23;2.87;;;;;;;;;;1721318;80;21084;-47
2022/12/04 05:51:43;;;;;;;11.40;3.73;;;;;;;;;;1724079;80;21050;-46
2022/12/04 05:54:10;;;;;;;11.33;4.07;;;;;;;;;;1720335;80;21522;-46
2022/12/04 05:56:36;;;;;;;6.13;2.83;;;;;;;;;;1716299;80;21876;-46
2022/12/04 05:59:02;;;;;;;10.60;4.03;;;;;;;;;;1718893;80;21045;-45
2022/12/04 06:01:29;;;;;;;10.90;4.07;;;;;;;;;;1719629;80;22281;-45
2022/12/04 06:03:55;;;;;;;9.90;3.93;;;;;;;;;;1722955;80;21578;-45
2022/12/04 06:06:23;;;;;;;11.93;4.97;;;;;;;;;;1722203;80;21080;-46
2022/12/04 06:08:51;;;;;;;8.10;4.87;;;;;;;;;;1765221;79;21792;-47
2022/12/04 06:11:19;;;;;;;9.57;4.67;;;;;;;;;;1764841;80;20990;-47
2022/12/04 06:13:46;;;;;;;11.07;4.17;;;;;;;;;;1766663;80;21089;-47
2022/12/04 06:16:16;;;;;;;11.93;4.23;;;;;;;;;;1765663;80;21022;-47
2022/12/04 06:18:42;;;;;;;8.57;4.77;;;;;;;;;;1764428;79;21030;-46
2022/12/04 06:21:09;;;;;;;10.10;3.93;;;;;;;;;;1763958;80;21888;-47
2022/12/04 06:23:35;;;;;;;9.80;4.00;;;;;;;;;;1765394;80;21495;-46
2022/12/04 06:26:03;;;;;;;6.13;3.70;;;;;;;;;;1762282;79;21116;-46
2022/12/04 06:28:30;;;;;;;9.80;3.90;;;;;;;;;;1767807;80;21093;-46
2022/12/04 06:31:02;;;;;;;10.00;4.40;;;;;;;;;;1765386;79;21055;-46
2022/12/04 06:33:28;;;;;;;10.03;5.20;;;;;;;;;;1762225;80;21910;-46
2022/12/04 06:36:00;;;;;;;11.10;4.00;;;;;;;;;;1724307;81;21038;-46
2022/12/04 06:38:27;;;;;;;10.07;3.93;;;;;;;;;;1765174;79;21106;-44
2022/12/04 06:40:53;;;;;;;10.10;4.43;;;;;;;;;;1770769;79;21030;-45
2022/12/04 06:43:19;;;;;;;10.50;3.63;;;;;;;;;;1764333;79;21037;-46
2022/12/04 06:45:46;;;;;;;11.97;3.90;;;;;;;;;;1764918;79;23635;-45
2022/12/04 06:48:12;;;;;;;8.17;3.50;;;;;;;;;;1765516;80;21077;-46
2022/12/04 06:50:39;;;;;;;7.27;3.77;;;;;;;;;;1762976;80;21025;-47
2022/12/04 06:53:05;;;;;;;8.57;3.57;;;;;;;;;;1764510;80;21094;-45
2022/12/04 06:55:32;;;;;;;12.10;4.13;;;;;;;;;;1762633;80;21041;-45
2022/12/04 06:57:58;;;;;;;9.53;4.53;;;;;;;;;;1770602;80;21931;-44
2022/12/04 07:00:24;;;;;;;13.37;3.97;;;;;;;;;;1768351;79;21077;-44
2022/12/04 07:02:51;;;;;;;13.27;5.13;;;;;;;;;;1764716;79;21065;-44
2022/12/04 07:05:17;;;;;;;5.37;3.17;;;;;;;;;;1768586;80;21053;-44
2022/12/04 07:07:43;;;;;;;6.63;3.73;;;;;;;;;;1766702;80;21506;-45
2022/12/04 07:10:10;;;;;;;10.40;4.70;;;;;;;;;;1773990;79;21836;-44
2022/12/04 07:12:38;;;;;;;11.57;4.47;;;;;;;;;;1770533;79;21300;-46
2022/12/04 07:15:05;;;;;;;8.47;3.63;;;;;;;;;;1772017;80;21685;-45
2022/12/04 07:17:31;;;;;;;10.63;4.70;;;;;;;;;;1775266;79;21530;-45
2022/12/04 07:19:57;;;;;;;9.97;3.50;;;;;;;;;;1774355;79;21087;-45
2022/12/04 07:22:23;;;;;;;8.73;4.00;;;;;;;;;;1772598;79;21941;-46
2022/12/04 07:24:49;;;;;;;11.23;4.63;;;;;;;;;;1770238;79;21626;-45
2022/12/04 07:27:16;;;;;;;11.43;4.10;;;;;;;;;;1770856;79;21311;-45
2022/12/04 07:29:42;;;;;;;11.43;3.73;;;;;;;;;;1772716;80;21514;-46
2022/12/04 07:32:08;;;;;;;11.23;3.73;;;;;;;;;;1771859;79;21092;-46
2022/12/04 07:34:35;;;;;;;8.23;4.03;;;;;;;;;;1770934;80;21828;-46
2022/12/04 07:37:01;;;;;;;9.97;3.83;;;;;;;;;;1771142;80;21231;-48
2022/12/04 07:39:28;;;;;;;9.80;4.13;;;;;;;;;;1773012;79;21566;-45
2022/12/04 07:41:54;;;;;;;12.73;3.97;;;;;;;;;;1772238;79;21034;-47
2022/12/04 07:44:20;;;;;;;7.90;3.43;;;;;;;;;;1770372;79;21061;-47
2022/12/04 07:46:46;;;;;;;9.23;3.00;;;;;;;;;;1772470;79;21842;-46
2022/12/04 07:49:13;;;;;;;9.30;3.70;;;;;;;;;;1772127;80;21151;-47
2022/12/04 07:51:39;;;;;;;7.83;3.10;;;;;;;;;;1770345;79;21037;-45
2022/12/04 07:54:05;;;;;;;7.07;2.50;;;;;;;;;;1774079;79;21096;-46
2022/12/04 07:56:32;;;;;;;6.37;2.80;;;;;;;;;;1773525;79;21593;-45
2022/12/04 07:58:59;;;;;;;9.50;1.87;;;;;;;;;;1775595;79;21890;-45
2022/12/04 08:01:25;;;;;;;7.27;2.53;;;;;;;;;;1772100;79;21010;-46
2022/12/04 08:03:53;;;;;;;8.37;3.13;;;;;;;;;;1773920;80;21025;-46
2022/12/04 08:06:20;;;;;;;8.33;3.13;;;;;;;;;;1742914;79;21053;-45
2022/12/04 08:08:46;;;;;;;9.33;3.87;;;;;;;;;;1769078;79;20975;-45
2022/12/04 08:11:15;;;;;;;5.87;2.73;;;;;;;;;;1766499;79;22263;-45
2022/12/04 08:13:41;;;;;;;9.93;3.93;;;;;;;;;;1766496;79;21087;-47
2022/12/04 08:16:08;;;;;;;7.37;2.90;;;;;;;;;;1763617;79;21535;-45
2022/12/04 08:18:35;;;;;;;6.80;3.30;;;;;;;;;;1766911;80;21391;-46
2022/12/04 08:21:12;;;;;;;11.60;2.90;;;;;;;;;;1763631;80;21276;-45
2022/12/04 08:23:39;;;;;;;7.17;2.77;;;;;;;;;;1767498;80;23224;-45
2022/12/04 08:26:06;;;;;;;7.00;3.27;;;;;;;;;;1766727;80;21148;-47
2022/12/04 08:28:32;;;;;;;7.30;2.73;;;;;;;;;;1727304;81;21133;-46
2022/12/04 08:31:13;;;;;;;8.13;3.53;;;;;;;;;;1763150;79;21084;-45
2022/12/04 08:33:40;;;;;;;5.60;2.97;;;;;;;;;;1769876;80;21073;-44
2022/12/04 08:36:09;;;;;;;7.97;2.87;;;;;;;;;;1764576;79;21836;-45
2022/12/04 08:38:35;;;;;;;9.33;2.90;;;;;;;;;;1768712;80;21675;-45
2022/12/04 08:41:03;;;;;;;6.33;2.60;;;;;;;;;;1765485;79;21041;-45
2022/12/04 08:43:30;;;;;;;5.87;2.60;;;;;;;;;;1764889;79;20998;-45
2022/12/04 08:46:00;;;;;;;7.97;2.63;;;;;;;;;;1770124;79;21068;-44
2022/12/04 08:48:26;;;;;;;6.73;3.20;;;;;;;;;;1763613;80;21920;-45
2022/12/04 08:50:53;;;;;;;9.20;3.87;;;;;;;;;;1763552;80;21055;-45
2022/12/04 08:53:19;;;;;;;7.30;3.33;;;;;;;;;;1763310;80;21016;-44
2022/12/04 08:55:45;;;;;;;9.20;3.60;;;;;;;;;;1769939;79;21053;-45
2022/12/04 08:58:11;;;;;;;10.03;4.17;;;;;;;;;;1765535;80;21391;-44
2022/12/04 09:00:39;;;;;;;6.20;2.70;;;;;;;;;;1763600;80;21844;-45
2022/12/04 09:03:05;;;;;;;6.43;2.93;;;;;;;;;;1726633;82;21062;-44
2022/12/04 09:05:31;;;;;;;9.37;2.80;;;;;;;;;;1768689;79;22197;-45
2022/12/04 09:07:57;;;;;;;7.70;2.90;;;;;;;;;;1768044;80;21128;-44
2022/12/04 09:10:24;;;;;;;7.17;2.77;;;;;;;;;;1771253;79;21042;-45
2022/12/04 09:12:50;;;;;;;5.93;2.83;;;;;;;;;;1775679;79;22503;-44
2022/12/04 09:15:16;;;;;;;7.73;3.67;;;;;;;;;;1766989;79;21085;-44
2022/12/04 09:17:43;;;;;;;6.93;3.00;;;;;;;;;;1774238;79;21964;-46
2022/12/04 09:20:09;;;;;;;9.73;2.67;;;;;;;;;;1771824;79;21579;-44
2022/12/04 09:22:36;;;;;;;5.73;2.53;;;;;;;;;;1775231;80;21045;-44
2022/12/04 09:25:04;;;;;;;6.73;2.70;;;;;;;;;;1769657;79;21911;-44
2022/12/04 09:27:35;;;;;;;7.23;3.00;;;;;;;;;;1769828;79;21517;-44
2022/12/04 09:30:01;;;;;;;7.87;2.33;;;;;;;;;;1763747;79;21045;-44
2022/12/04 09:32:27;;;;;;;7.53;2.77;;;;;;;;;;1773580;79;21479;-44
2022/12/04 09:34:54;;;;;;;5.57;2.60;;;;;;;;;;1766196;79;21619;-46
2022/12/04 09:37:20;;;;;;;7.80;2.53;;;;;;;;;;1769912;79;22286;-43
2022/12/04 09:39:46;;;;;;;5.73;2.70;;;;;;;;;;1772575;79;21878;-45
2022/12/04 09:42:25;;;;;;;5.87;3.00;;;;;;;;;;1771758;79;21057;-44
2022/12/04 09:45:00;;;;;;;3.53;2.17;;;;;;;;;;1773509;79;21810;-45
2022/12/04 09:47:29;;;;;;;5.70;3.03;;;;;;;;;;1772936;79;21546;-46
2022/12/04 09:50:04;;;;;;;5.17;2.17;;;;;;;;;;1774665;80;22674;-45
2022/12/04 09:52:49;;;;;;;6.43;1.93;;;;;;;;;;1774428;80;21221;-45
2022/12/04 09:55:28;;;;;;;4.30;1.83;;;;;;;;;;1752363;80;21641;-45
2022/12/04 09:57:56;;;;;;;6.40;2.80;;;;;;;;;;1775006;80;21343;-47
2022/12/04 10:00:22;;;;;;;3.93;1.30;;;;;;;;;;1774196;80;21094;-48
2022/12/04 10:02:56;;;;;;;2.23;1.40;;;;;;;;;;1774390;80;21831;-47
2022/12/04 10:05:38;;;;;;;2.60;1.70;;;;;;;;;;1775616;80;21055;-45
2022/12/04 10:08:22;;;;;;;4.07;1.43;;;;;;;;;;1771353;80;21354;-45
2022/12/04 10:11:22;;;;;;;3.27;1.57;;;;;;;;;;1766201;79;21088;-45
2022/12/04 10:13:55;;;;;;;2.03;1.10;;;;;;;;;;1763694;80;21041;-44
2022/12/04 10:16:51;;;;;;;4.00;1.27;;;;;;;;;;1766508;80;21828;-45
2022/12/04 10:19:40;;;;;;;3.70;1.63;;;;;;;;;;1743938;80;21050;-45
2022/12/04 10:22:36;;;;;;;2.20;1.43;;;;;;;;;;1763736;80;21546;-45
2022/12/04 10:25:06;;;;;;;7.03;2.43;;;;;;;;;;1765926;80;21034;-45
2022/12/04 10:27:41;;;;;;;5.47;2.13;;;;;;;;;;1766663;80;21121;-45
2022/12/04 10:30:19;;;;;;;5.60;2.20;;;;;;;;;;1765043;80;21809;-45
2022/12/04 10:32:46;;;;;;;5.67;3.33;;;;;;;;;;1768905;80;21011;-45
2022/12/04 10:35:23;;;;;;;6.83;2.13;;;;;;;;;;1772583;80;21034;-44
2022/12/04 10:37:53;;;;;;;6.00;1.90;;;;;;;;;;1766989;80;21034;-46
2022/12/04 10:40:22;;;;;;;9.20;2.60;;;;;;;;;;1766259;80;21041;-45
2022/12/04 10:42:52;;;;;;;5.77;2.17;;;;;;;;;;1765054;80;21848;-47
2022/12/04 10:45:20;;;;;;;4.30;2.13;;;;;;;;;;1761729;80;21545;-46
2022/12/04 10:47:47;;;;;;;6.50;1.70;;;;;;;;;;1762878;80;21031;-45
2022/12/04 10:50:16;;;;;;;3.63;1.80;;;;;;;;;;1767620;80;21501;-46
2022/12/04 10:52:42;;;;;;;5.50;1.40;;;;;;;;;;1770025;80;21033;-45
2022/12/04 10:55:08;;;;;;;5.93;1.80;;;;;;;;;;1762744;80;23332;-46
2022/12/04 10:57:41;;;;;;;4.23;1.63;;;;;;;;;;1772826;80;21057;-46
2022/12/04 11:00:30;;;;;;;3.83;1.70;;;;;;;;;;1767993;80;21642;-46
2022/12/04 11:02:59;;;;;;;5.50;1.70;;;;;;;;;;1765391;80;21059;-46
2022/12/04 11:05:34;;;;;;;3.33;1.33;;;;;;;;;;1763130;80;21547;-46
2022/12/04 11:08:02;;;;;;;2.07;1.50;;;;;;;;;;1762099;80;21951;-47
2022/12/04 11:10:37;;;;;;;4.03;1.30;;;;;;;;;;1768974;80;21022;-47
2022/12/04 11:13:12;;;;;;;2.70;1.00;;;;;;;;;;1764892;80;21050;-45
2022/12/04 11:15:44;;;;;;;3.43;1.00;;;;;;;;;;1763343;79;21104;-46
2022/12/04 11:18:31;;;;;;;5.70;1.10;;;;;;;;;;1764880;80;21040;-46
2022/12/04 11:21:16;;;;;;;4.83;1.00;;;;;;;;;;1762749;80;21318;-46
2022/12/04 11:23:42;;;;;;;;;;;;;;;;;;1683679;83;21082;-46
2022/12/04 11:26:08;;;;;;;2.93;1.20;;;;;;;;;;1730587;82;20167;-46
2022/12/04 11:28:35;;;;;;;4.53;1.23;;;;;;;;;;1725694;82;21058;-46
2022/12/04 11:31:02;;;;;;;5.40;1.60;;;;;;;;;;1717395;80;21570;-46
2022/12/04 11:33:38;;;;;;;7.70;1.60;;;;;;;;;;1726223;81;21852;-47
2022/12/04 11:36:17;;;;;;;4.23;1.63;;;;;;;;;;1767482;79;21492;-46
2022/12/04 11:38:43;;;;;;;3.80;1.40;;;;;;;;;;1763133;79;21535;-46
2022/12/04 11:41:11;;;;;;;5.00;1.13;;;;;;;;;;1761274;80;21081;-46
2022/12/04 11:43:37;;;;;;;4.63;1.00;;;;;;;;;;1739863;79;21578;-46
2022/12/04 11:46:09;;;;;;;8.50;1.50;;;;;;;;;;1720387;79;21668;-46
2022/12/04 11:48:43;;;;;;;3.87;1.20;;;;;;;;;;1761195;79;21107;-45
2022/12/04 11:51:36;;;;;;;2.20;1.40;;;;;;;;;;1764663;80;21032;-46
2022/12/04 11:54:18;;;;;;;4.07;1.30;;;;;;;;;;1764038;79;21042;-46
2022/12/04 11:56:46;;;;;;;5.47;1.73;;;;;;;;;;1712248;79;21382;-46
2022/12/04 11:59:25;;;;;;;3.83;1.43;;;;;;;;;;1765267;79;22630;-45
2022/12/04 12:01:57;;;;;;;4.87;1.30;;;;;;;;;;1766601;79;21445;-45
2022/12/04 12:04:52;;;;;;;4.13;1.70;;;;;;;;;;1767746;79;21278;-45
2022/12/04 12:07:39;;;;;;;3.00;1.27;;;;;;;;;;1730078;80;21159;-46
2022/12/04 12:10:23;;;;;;;4.53;1.33;;;;;;;;;;1762071;79;21080;-45
2022/12/04 12:13:08;;;;;;;3.23;1.00;;;;;;;;;;1770113;79;21791;-46
2022/12/04 12:15:43;;;;;;;3.70;1.80;;;;;;;;;;1769596;79;21064;-46
2022/12/04 12:18:45;;;;;;;3.30;1.23;;;;;;;;;;1773782;79;21084;-45
2022/12/04 12:21:25;;;;;;;4.50;1.47;;;;;;;;;;1770110;79;21047;-45
2022/12/04 12:24:15;;;;;;;4.60;1.03;;;;;;;;;;1773804;79;21132;-45
2022/12/04 12:26:51;;;;;;;3.33;0.90;;;;;;;;;;1775163;79;21854;-45
2022/12/04 12:29:29;;;;;;;3.43;0.90;;;;;;;;;;1771083;79;21681;-45
2022/12/04 12:32:19;;;;;;;3.27;0.90;;;;;;;;;;1773867;79;21581;-45
2022/12/04 12:34:47;;;;;;;3.93;0.90;;;;;;;;;;1770943;80;21613;-46
2022/12/04 12:37:21;;;;;;;3.90;0.93;;;;;;;;;;1744825;80;21053;-46
2022/12/04 12:39:51;;;;;;;2.27;1.00;;;;;;;;;;1774513;79;21864;-46
2022/12/04 12:42:28;;;;;;;2.12;0.80;;;;;;;;;;1772756;79;21539;-46
2022/12/04 12:45:31;;;;;;;1.70;0.90;;;;;;;;;;1772476;79;21069;-46
2022/12/04 12:48:03;;;;;;;3.80;0.80;;;;;;;;;;1771869;79;21008;-46
2022/12/04 12:50:35;;;;;;;4.47;1.20;;;;;;;;;;1771294;79;21067;-45
2022/12/04 12:53:06;;;;;;;3.43;0.80;;;;;;;;;;1770069;79;23308;-46
2022/12/04 12:55:45;;;;;;;3.97;1.47;;;;;;;;;;1773217;79;21122;-46
2022/12/04 12:58:20;;;;;;;3.77;0.90;;;;;;;;;;1773838;79;21046;-46
2022/12/04 13:00:59;;;;;;;6.77;0.83;;;;;;;;;;1775012;79;21559;-47
2022/12/04 13:03:29;;;;;;;2.00;0.80;;;;;;;;;;1773914;79;21050;-46
2022/12/04 13:05:57;;;;;;;7.77;1.00;;;;;;;;;;1774336;79;22007;-46
2022/12/04 13:08:26;;;;;;;2.37;0.83;;;;;;;;;;1771293;79;21077;-46
2022/12/04 13:11:13;;;;;;;2.00;0.67;;;;;;;;;;1729365;79;21117;-46
2022/12/04 13:13:46;;;;;;;3.87;0.93;;;;;;;;;;1726076;80;21233;-46
2022/12/04 13:16:20;;;;;;;3.17;0.97;;;;;;;;;;1725787;80;21562;-45
2022/12/04 13:19:11;;;;;;;2.43;0.70;;;;;;;;;;1729628;80;22351;-45
2022/12/04 13:21:56;;;;;;;3.73;0.90;;;;;;;;;;1719516;80;21499;-45
2022/12/04 13:24:42;;;;;;;2.07;0.80;;;;;;;;;;1722060;80;21084;-45
2022/12/04 13:27:21;;;;;;;2.67;0.70;;;;;;;;;;1720139;80;21085;-44
2022/12/04 13:30:09;;;;;;;1.93;0.80;;;;;;;;;;1725262;80;21049;-46
2022/12/04 13:32:55;;;;;;;1.90;0.80;;;;;;;;;;1726359;80;21833;-45
2022/12/04 13:35:28;;;;;;;2.60;0.80;;;;;;;;;;1726003;80;21018;-45
2022/12/04 13:38:09;;;;;;;3.83;0.90;;;;;;;;;;1723852;80;21045;-46
2022/12/04 13:40:38;;;;;;;3.40;0.90;;;;;;;;;;1724049;80;21633;-47
2022/12/04 13:43:11;;;;;;;2.43;0.80;;;;;;;;;;1723801;80;21112;-47
2022/12/04 13:45:37;;;;;;;3.63;0.90;;;;;;;;;;1716745;80;21897;-47
2022/12/04 13:48:04;;;;;;;1.90;0.80;;;;;;;;;;1725944;80;21184;-47
2022/12/04 13:50:34;;;;;;;2.03;0.80;;;;;;;;;;1723505;80;21045;-47
2022/12/04 13:53:01;;;;;;;6.13;1.40;;;;;;;;;;1722528;80;21104;-47
2022/12/04 13:55:38;;;;;;;6.67;1.27;;;;;;;;;;1731477;80;21125;-47
2022/12/04 13:58:14;;;;;;;5.03;1.97;;;;;;;;;;1721091;81;21857;-47
2022/12/04 14:00:41;;;;;;;3.73;1.50;;;;;;;;;;1723343;81;21042;-45
2022/12/04 14:03:28;;;;;;;3.07;0.87;;;;;;;;;;1722201;80;21018;-45
2022/12/04 14:05:54;;;;;;;4.10;2.40;;;;;;;;;;1710260;81;21087;-44
2022/12/04 14:08:28;;;;;;;5.17;1.50;;;;;;;;;;1720547;81;21096;-45
2022/12/04 14:11:10;;;;;;;3.00;1.40;;;;;;;;;;1757807;79;26034;-45
2022/12/04 14:13:47;;;;;;;3.00;1.30;;;;;;;;;;1766167;80;21657;-46
2022/12/04 14:16:22;;;;;;;3.60;1.10;;;;;;;;;;1768605;79;21063;-46
2022/12/04 14:18:53;;;;;;;3.70;1.07;;;;;;;;;;1769306;79;21071;-46
2022/12/04 14:21:19;;;;;;;3.63;1.30;;;;;;;;;;1775147;79;21680;-46
2022/12/04 14:23:45;;;;;;;3.33;1.50;;;;;;;;;;1768184;79;23046;-45
2022/12/04 14:26:30;;;;;;;2.73;0.90;;;;;;;;;;1767507;80;21045;-46
2022/12/04 14:32:09;;;;;;;5.33;1.93;;;;;;;;;;1716489;78;76288;-77
2022/12/04 14:34:35;;;;;;;2.67;1.20;;;;;;;;;;1657180;84;21070;-78
2022/12/04 14:37:01;;;;;;;3.90;1.10;;;;;;;;;;1662395;84;21848;-76
2022/12/04 14:39:39;;;;;;;4.33;1.30;;;;;;;;;;1635349;84;21580;-77
2022/12/04 14:42:25;;;;;;;5.43;1.60;;;;;;;;;;1658932;84;21099;-77
2022/12/04 14:44:57;;;;;;;6.67;2.57;;;;;;;;;;1651008;84;21064;-77
2022/12/04 14:47:36;;;;;;;15.67;6.10;;;;;;;;;;1659221;84;21071;-77
2022/12/04 14:50:33;;;;;;;37.17;18.17;;;;;;;;;;1660109;85;22305;-77
2022/12/04 14:53:19;;;;;;;25.43;12.17;;;;;;;;;;1655491;84;21059;-77
2022/12/04 14:56:05;;;;;;;23.33;10.47;;;;;;;;;;1655461;84;21092;-78
2022/12/04 14:58:34;;;;;;;25.53;12.17;;;;;;;;;;1588534;88;21549;-78
2022/12/04 15:01:02;;;;;;;32.83;15.73;;;;;;;;;;1653081;84;21655;-78
2022/12/04 15:03:30;;;;;;;32.23;16.50;;;;;;;;;;1643509;85;21302;-78
2022/12/04 15:06:06;;;;;;;16.80;6.13;;;;;;;;;;1623125;86;21086;-79
2022/12/04 15:08:33;;;;;;;4.37;1.40;;;;;;;;;;1655316;85;21059;-78
2022/12/04 15:13:44;;;;;;;4.00;1.20;;;;;;;;;;1627604;86;21118;-79
2022/12/04 15:16:16;;;;;;;3.00;1.63;;;;;;;;;;1625645;86;21907;-78
2022/12/04 15:18:55;;;;;;;4.13;1.27;;;;;;;;;;1624202;86;21669;-78
2022/12/04 15:21:23;;;;;;;3.53;1.30;;;;;;;;;;1662120;84;21037;-78
2022/12/04 15:23:49;;;;;;;3.13;1.10;;;;;;;;;;1647537;85;21044;-78